createdAt,value
2023-01-01T00:00:53.059Z,85.07
2023-01-01T00:03:22.417Z,79.40
2023-01-01T00:05:53.394Z,73.40
2023-01-01T00:08:22.474Z,60.33
2023-01-01T00:10:51.503Z,65.32
2023-01-01T00:13:20.584Z,67.28
2023-01-01T00:15:50.342Z,66.50
2023-01-01T00:18:19.419Z,64.85
2023-01-01T00:20:48.540Z,68.82
2023-01-01T00:23:19.014Z,67.05
2023-01-01T00:25:48.079Z,65.47
2023-01-01T00:28:17.245Z,67.00
2023-01-01T00:30:46.405Z,63.15
2023-01-01T00:33:15.589Z,63.00
2023-01-01T00:35:44.684Z,64.75
2023-01-01T00:38:13.746Z,53.72
2023-01-01T00:40:44.618Z,51.13
2023-01-01T00:43:13.846Z,55.15
2023-01-01T00:45:47.907Z,40.30
2023-01-01T00:48:17.075Z,35.55
2023-01-01T00:50:46.934Z,45.20
2023-01-01T00:53:16.495Z,35.78
2023-01-01T00:55:48.660Z,30.23
2023-01-01T00:58:19.864Z,36.83
2023-01-01T01:00:49.066Z,46.97
2023-01-01T01:03:29.076Z,46.25
2023-01-01T01:05:59.996Z,49.70
2023-01-01T01:08:31.318Z,48.22
2023-01-01T01:11:08.941Z,45.38
2023-01-01T01:13:39.080Z,45.05
2023-01-01T01:16:13.832Z,48.63
2023-01-01T01:18:43.742Z,49.08
2023-01-01T01:21:16.315Z,49.65
2023-01-01T01:23:45.453Z,49.40
2023-01-01T01:26:18.621Z,50.17
2023-01-01T01:28:49.938Z,47.63
2023-01-01T01:31:20.341Z,46.03
2023-01-01T01:33:51.235Z,41.20
2023-01-01T01:36:21.144Z,39.88
2023-01-01T01:38:50.580Z,40.95
2023-01-01T01:41:28.404Z,40.83
2023-01-01T01:44:02.251Z,37.25
2023-01-01T01:46:36.055Z,36.17
2023-01-01T01:49:15.565Z,40.15
2023-01-01T01:51:46.372Z,37.40
2023-01-01T01:54:20.658Z,41.65
2023-01-01T01:56:56.553Z,44.63
2023-01-01T01:59:32.223Z,43.60
2023-01-01T02:02:01.687Z,44.55
2023-01-01T02:04:31.357Z,47.55
2023-01-01T02:07:03.008Z,44.92
2023-01-01T02:09:32.537Z,47.28
2023-01-01T02:12:03.245Z,49.13
2023-01-01T02:14:33.382Z,51.92
2023-01-01T02:17:10.386Z,56.92
2023-01-01T02:19:56.598Z,60.53
2023-01-01T02:22:38.602Z,61.38
2023-01-01T02:25:21.099Z,59.55
2023-01-01T02:28:00.081Z,64.50
2023-01-01T02:30:33.138Z,58.47
2023-01-01T02:33:07.228Z,58.88
2023-01-01T02:35:42.629Z,57.30
2023-01-01T02:38:19.648Z,59.05
2023-01-01T02:40:51.793Z,55.65
2023-01-01T02:43:24.811Z,58.42
2023-01-01T02:45:56.593Z,57.75
2023-01-01T02:48:42.574Z,58.70
2023-01-01T02:51:24.562Z,53.22
2023-01-01T02:54:03.443Z,54.15
2023-01-01T02:56:43.373Z,53.90
2023-01-01T02:59:40.884Z,48.70
2023-01-01T03:02:24.738Z,47.13
2023-01-01T03:05:05.561Z,42.60
2023-01-01T03:07:50.889Z,43.83
2023-01-01T03:10:25.257Z,43.63
2023-01-01T03:12:58.119Z,41.63
2023-01-01T03:15:36.910Z,40.72
2023-01-01T03:18:14.913Z,33.50
2023-01-01T03:20:48.367Z,31.63
2023-01-01T03:23:23.421Z,40.80
2023-01-01T03:25:55.577Z,45.13
2023-01-01T03:28:29.608Z,48.70
2023-01-01T03:31:00.551Z,50.67
2023-01-01T03:33:35.925Z,51.30
2023-01-01T03:36:12.068Z,50.75
2023-01-01T03:38:46.294Z,50.60
2023-01-01T03:41:22.497Z,51.35
2023-01-01T03:43:57.602Z,54.42
2023-01-01T03:46:32.173Z,55.50
2023-01-01T03:49:05.493Z,53.83
2023-01-01T03:51:55.453Z,51.53
2023-01-01T03:54:40.269Z,47.40
2023-01-01T03:57:17.698Z,45.90
2023-01-01T03:59:57.702Z,42.08
2023-01-01T04:02:33.110Z,38.70
2023-01-01T04:05:07.538Z,39.40
2023-01-01T04:07:37.044Z,39.58
2023-01-01T04:10:17.454Z,40.95
2023-01-01T04:12:49.460Z,44.22
2023-01-01T04:15:20.746Z,42.58
2023-01-01T04:17:50.107Z,46.83
2023-01-01T04:20:21.738Z,49.05
2023-01-01T04:22:51.115Z,50.10
2023-01-01T04:25:20.329Z,50.95
2023-01-01T04:27:49.612Z,45.95
2023-01-01T04:30:19.490Z,47.78
2023-01-01T04:32:48.774Z,44.05
2023-01-01T04:35:18.143Z,45.15
2023-01-01T04:37:48.664Z,44.80
2023-01-01T04:40:17.932Z,44.22
2023-01-01T04:42:46.946Z,41.95
2023-01-01T04:45:16.194Z,40.40
2023-01-01T04:47:45.524Z,39.72
2023-01-01T04:50:14.850Z,40.20
2023-01-01T04:52:43.939Z,41.03
2023-01-01T04:55:14.481Z,38.55
2023-01-01T04:57:44.603Z,37.70
2023-01-01T05:00:14.716Z,36.00
2023-01-01T05:02:43.931Z,32.03
2023-01-01T05:05:13.174Z,31.20
2023-01-01T05:07:42.409Z,34.08
2023-01-01T05:10:12.915Z,40.03
2023-01-01T05:12:44.179Z,42.33
2023-01-01T05:15:13.253Z,39.10
2023-01-01T05:17:42.342Z,45.92
2023-01-01T05:20:12.337Z,46.03
2023-01-01T05:22:41.439Z,39.42
2023-01-01T05:25:11.037Z,39.95
2023-01-01T05:27:41.515Z,39.08
2023-01-01T05:30:11.783Z,37.08
2023-01-01T05:32:40.869Z,37.17
2023-01-01T05:35:10.889Z,34.97
2023-01-01T05:37:40.102Z,37.67
2023-01-01T05:40:11.051Z,36.10
2023-01-01T05:42:41.518Z,36.25
2023-01-01T05:45:12.420Z,36.70
2023-01-01T05:47:41.576Z,38.55
2023-01-01T05:52:39.217Z,41.55
2023-01-01T05:55:09.634Z,39.05
2023-01-01T05:57:38.822Z,35.88
2023-01-01T06:00:11.352Z,36.53
2023-01-01T06:02:40.557Z,34.17
2023-01-01T06:05:10.836Z,37.10
2023-01-01T06:07:43.312Z,36.25
2023-01-01T06:12:46.065Z,37.45
2023-01-01T06:15:16.728Z,41.70
2023-01-01T06:17:45.811Z,42.58
2023-01-01T06:20:15.199Z,44.67
2023-01-01T06:22:44.280Z,44.92
2023-01-01T06:25:14.286Z,45.47
2023-01-01T06:27:43.562Z,41.90
2023-01-01T06:30:13.389Z,39.10
2023-01-01T06:32:43.986Z,37.65
2023-01-01T06:35:13.534Z,35.65
2023-01-01T06:37:42.724Z,36.40
2023-01-01T06:40:12.575Z,36.85
2023-01-01T06:42:41.721Z,35.53
2023-01-01T06:45:13.274Z,33.30
2023-01-01T06:47:43.913Z,32.97
2023-01-01T06:50:13.024Z,28.80
2023-01-01T06:52:42.200Z,26.63
2023-01-01T06:55:11.473Z,25.38
2023-01-01T06:57:40.634Z,29.85
2023-01-01T07:00:11.369Z,34.35
2023-01-01T07:02:40.545Z,36.95
2023-01-01T07:05:11.343Z,32.50
2023-01-01T07:07:41.242Z,31.20
2023-01-01T07:10:10.766Z,33.50
2023-01-01T07:12:39.990Z,33.83
2023-01-01T07:15:10.464Z,38.75
2023-01-01T07:17:39.780Z,39.05
2023-01-01T07:20:11.417Z,40.45
2023-01-01T07:22:42.487Z,35.95
2023-01-01T07:25:15.254Z,36.97
2023-01-01T07:27:44.478Z,35.88
2023-01-01T07:30:13.739Z,34.72
2023-01-01T07:32:42.854Z,34.25
2023-01-01T07:35:13.357Z,34.63
2023-01-01T07:37:42.473Z,34.03
2023-01-01T07:40:13.313Z,32.22
2023-01-01T07:42:42.365Z,32.80
2023-01-01T07:45:13.713Z,31.13
2023-01-01T07:47:42.885Z,31.65
2023-01-01T07:50:18.995Z,32.72
2023-01-01T07:52:48.067Z,30.35
2023-01-01T07:55:19.915Z,29.25
2023-01-01T07:57:49.962Z,28.85
2023-01-01T08:00:21.847Z,30.30
2023-01-01T08:02:51.496Z,29.15
2023-01-01T08:05:26.618Z,28.77
2023-01-01T08:07:56.679Z,29.48
2023-01-01T08:10:25.810Z,27.23
2023-01-01T08:13:01.639Z,30.48
2023-01-01T08:15:31.265Z,29.83
2023-01-01T08:18:01.794Z,28.17
2023-01-01T08:20:33.801Z,28.10
2023-01-01T08:23:07.321Z,25.85
2023-01-01T08:25:36.761Z,27.50
2023-01-01T08:28:06.418Z,26.48
2023-01-01T08:30:35.504Z,26.08
2023-01-01T08:33:04.680Z,26.02
2023-01-01T08:35:37.349Z,25.48
2023-01-01T08:38:06.420Z,26.17
2023-01-01T08:40:36.739Z,26.27
2023-01-01T08:43:05.813Z,26.52
2023-01-01T08:45:35.055Z,27.90
2023-01-01T08:48:04.249Z,27.75
2023-01-01T08:50:34.787Z,27.55
2023-01-01T08:53:04.356Z,27.85
2023-01-01T08:55:33.506Z,26.60
2023-01-01T08:58:02.577Z,25.55
2023-01-01T09:00:31.668Z,24.50
2023-01-01T09:03:01.041Z,25.42
2023-01-01T09:05:30.249Z,26.25
2023-01-01T09:08:00.726Z,25.50
2023-01-01T09:10:29.914Z,27.10
2023-01-01T09:12:58.993Z,24.80
2023-01-01T09:15:28.219Z,27.23
2023-01-01T09:17:57.266Z,28.98
2023-01-01T09:20:26.563Z,26.08
2023-01-01T09:22:59.675Z,25.42
2023-01-01T09:25:34.811Z,25.63
2023-01-01T09:28:06.528Z,26.30
2023-01-01T09:30:36.540Z,26.63
2023-01-01T09:33:06.031Z,25.60
2023-01-01T09:35:36.408Z,26.98
2023-01-01T09:38:05.581Z,24.08
2023-01-01T09:40:51.487Z,24.45
2023-01-01T09:43:37.751Z,23.25
2023-01-01T09:46:11.207Z,24.30
2023-01-01T09:48:50.224Z,23.48
2023-01-01T09:51:20.979Z,23.17
2023-01-01T09:53:56.495Z,22.95
2023-01-01T09:56:29.657Z,21.52
2023-01-01T09:59:00.379Z,23.05
2023-01-01T10:01:44.048Z,23.42
2023-01-01T10:04:29.517Z,23.08
2023-01-01T10:07:09.592Z,23.88
2023-01-01T10:09:51.981Z,21.70
2023-01-01T10:12:31.723Z,22.30
2023-01-01T10:15:12.592Z,21.45
2023-01-01T10:17:47.101Z,19.02
2023-01-01T10:20:24.102Z,18.60
2023-01-01T10:23:01.077Z,19.20
2023-01-01T10:25:35.209Z,18.13
2023-01-01T10:28:08.705Z,17.33
2023-01-01T10:30:38.123Z,18.48
2023-01-01T10:33:14.143Z,18.77
2023-01-01T10:35:48.810Z,18.08
2023-01-01T10:38:24.770Z,18.20
2023-01-01T10:40:57.416Z,18.08
2023-01-01T10:43:28.015Z,17.30
2023-01-01T10:45:57.734Z,16.85
2023-01-01T10:48:28.630Z,16.67
2023-01-01T10:51:00.529Z,16.60
2023-01-01T10:53:34.300Z,16.30
2023-01-01T10:56:08.706Z,15.02
2023-01-01T10:58:46.544Z,14.57
2023-01-01T11:01:24.888Z,14.73
2023-01-01T11:04:00.183Z,14.93
2023-01-01T11:06:34.014Z,14.68
2023-01-01T11:09:08.375Z,14.52
2023-01-01T11:11:44.241Z,14.70
2023-01-01T11:14:23.122Z,15.63
2023-01-01T11:16:52.986Z,13.82
2023-01-01T11:19:28.966Z,13.68
2023-01-01T11:21:58.129Z,13.88
2023-01-01T11:24:29.535Z,13.05
2023-01-01T11:27:19.316Z,13.60
2023-01-01T11:29:51.509Z,13.10
2023-01-01T11:32:25.694Z,13.45
2023-01-01T11:35:01.280Z,13.18
2023-01-01T11:37:34.032Z,13.25
2023-01-01T11:40:06.063Z,12.57
2023-01-01T11:42:38.492Z,14.10
2023-01-01T11:45:20.317Z,12.95
2023-01-01T11:47:56.348Z,13.82
2023-01-01T11:50:31.276Z,12.38
2023-01-01T11:53:21.195Z,13.07
2023-01-01T11:55:56.372Z,13.30
2023-01-01T11:58:33.727Z,13.15
2023-01-01T12:01:11.262Z,13.43
2023-01-01T12:03:46.395Z,13.52
2023-01-01T12:06:22.170Z,13.55
2023-01-01T12:08:59.405Z,13.75
2023-01-01T12:11:36.154Z,14.30
2023-01-01T12:14:16.747Z,13.50
2023-01-01T12:16:56.486Z,14.55
2023-01-01T12:19:32.281Z,13.55
2023-01-01T12:22:02.512Z,13.45
2023-01-01T12:24:35.750Z,12.85
2023-01-01T12:27:18.686Z,13.70
2023-01-01T12:30:11.932Z,12.98
2023-01-01T12:33:08.200Z,13.32
2023-01-01T12:35:55.024Z,12.45
2023-01-01T12:38:46.048Z,13.10
2023-01-01T12:41:27.856Z,13.15
2023-01-01T12:44:08.815Z,12.82
2023-01-01T12:47:02.206Z,12.57
2023-01-01T12:49:54.605Z,12.55
2023-01-01T12:52:41.481Z,11.68
2023-01-01T12:55:54.231Z,12.43
2023-01-01T12:58:29.362Z,11.45
2023-01-01T13:01:04.166Z,12.25
2023-01-01T13:03:38.774Z,12.60
2023-01-01T13:06:16.340Z,12.77
2023-01-01T13:08:53.375Z,12.02
2023-01-01T13:11:27.463Z,12.02
2023-01-01T13:13:57.166Z,12.18
2023-01-01T13:16:38.781Z,12.20
2023-01-01T13:19:08.633Z,12.77
2023-01-01T13:21:40.054Z,11.73
2023-01-01T13:24:23.361Z,12.10
2023-01-01T13:26:53.637Z,11.57
2023-01-01T13:29:35.190Z,11.82
2023-01-01T13:32:07.749Z,10.73
2023-01-01T13:35:03.449Z,10.45
2023-01-01T13:37:51.891Z,11.00
2023-01-01T13:40:50.270Z,11.15
2023-01-01T13:43:29.672Z,10.32
2023-01-01T13:46:14.868Z,10.85
2023-01-01T13:49:12.653Z,11.27
2023-01-01T13:52:05.880Z,10.30
2023-01-01T13:55:32.705Z,10.20
2023-01-01T13:58:46.945Z,10.15
2023-01-01T14:01:55.181Z,9.77
2023-01-01T14:04:38.507Z,10.07
2023-01-01T14:07:49.710Z,8.63
2023-01-01T14:10:32.415Z,9.43
2023-01-01T14:13:17.509Z,9.35
2023-01-01T14:15:55.512Z,8.93
2023-01-01T14:18:34.472Z,7.50
2023-01-01T14:21:09.040Z,7.40
2023-01-01T14:23:44.425Z,8.48
2023-01-01T14:26:19.681Z,7.82
2023-01-01T14:28:59.538Z,7.90
2023-01-01T14:31:32.271Z,8.60
2023-01-01T14:34:03.984Z,8.13
2023-01-01T14:36:33.662Z,7.82
2023-01-01T14:39:03.068Z,8.25
2023-01-01T14:41:36.755Z,7.28
2023-01-01T14:44:11.784Z,8.20
2023-01-01T14:46:42.910Z,8.75
2023-01-01T14:49:17.515Z,7.78
2023-01-01T14:51:55.250Z,8.00
2023-01-01T14:54:33.183Z,8.07
2023-01-01T14:57:04.873Z,8.70
2023-01-01T14:59:36.235Z,8.68
2023-01-01T15:02:16.157Z,9.40
2023-01-01T15:04:48.322Z,15.95
2023-01-01T15:07:23.591Z,13.70
2023-01-01T15:09:54.183Z,12.00
2023-01-01T15:12:25.327Z,9.18
2023-01-01T15:14:58.133Z,8.73
2023-01-01T15:17:28.887Z,8.77
2023-01-01T15:20:08.027Z,9.60
2023-01-01T15:22:40.036Z,9.85
2023-01-01T15:25:15.271Z,11.50
2023-01-01T15:27:50.931Z,8.90
2023-01-01T15:30:27.084Z,10.00
2023-01-01T15:32:56.789Z,10.38
2023-01-01T15:35:32.708Z,9.73
2023-01-01T15:38:11.791Z,9.70
2023-01-01T15:40:42.057Z,9.63
2023-01-01T15:43:23.779Z,9.95
2023-01-01T15:45:58.018Z,10.55
2023-01-01T15:48:33.702Z,9.65
2023-01-01T15:51:18.734Z,10.20
2023-01-01T15:53:57.041Z,11.65
2023-01-01T15:56:29.753Z,11.45
2023-01-01T15:59:09.227Z,14.95
2023-01-01T16:01:41.821Z,15.43
2023-01-01T16:04:23.957Z,13.75
2023-01-01T16:06:59.491Z,10.90
2023-01-01T16:09:28.691Z,10.40
2023-01-01T16:11:59.523Z,12.45
2023-01-01T16:14:30.156Z,14.52
2023-01-01T16:17:02.077Z,13.85
2023-01-01T16:19:33.259Z,11.65
2023-01-01T16:22:02.438Z,12.57
2023-01-01T16:24:36.802Z,13.70
2023-01-01T16:27:05.928Z,14.43
2023-01-01T16:29:36.583Z,13.73
2023-01-01T16:32:06.632Z,13.57
2023-01-01T16:34:37.624Z,14.25
2023-01-01T16:37:06.677Z,13.57
2023-01-01T16:39:36.015Z,11.48
2023-01-01T16:42:05.597Z,12.02
2023-01-01T16:44:38.846Z,13.45
2023-01-01T16:47:07.988Z,12.55
2023-01-01T16:49:37.310Z,12.25
2023-01-01T16:52:06.507Z,15.35
2023-01-01T16:54:36.271Z,14.32
2023-01-01T16:57:05.363Z,15.13
2023-01-01T16:59:34.573Z,15.75
2023-01-01T17:02:07.871Z,16.70
2023-01-01T17:04:37.603Z,16.75
2023-01-01T17:07:06.704Z,15.95
2023-01-01T17:09:35.978Z,16.00
2023-01-01T17:12:05.680Z,15.75
2023-01-01T17:14:34.890Z,14.63
2023-01-01T17:17:05.352Z,13.95
2023-01-01T17:19:34.669Z,14.18
2023-01-01T17:22:05.568Z,12.82
2023-01-01T17:24:34.796Z,15.13
2023-01-01T17:27:04.071Z,17.30
2023-01-01T17:29:33.267Z,18.58
2023-01-01T17:32:02.412Z,18.75
2023-01-01T17:34:32.867Z,17.48
2023-01-01T17:37:02.052Z,17.88
2023-01-01T17:39:31.373Z,16.88
2023-01-01T17:42:01.876Z,15.40
2023-01-01T17:44:31.189Z,17.38
2023-01-01T17:47:00.358Z,19.23
2023-01-01T17:49:29.400Z,18.35
2023-01-01T17:51:59.910Z,19.17
2023-01-01T17:54:29.330Z,18.20
2023-01-01T17:57:03.458Z,18.90
2023-01-01T17:59:32.615Z,18.73
2023-01-01T18:02:02.275Z,18.33
2023-01-01T18:04:31.891Z,14.50
2023-01-01T18:07:06.298Z,15.35
2023-01-01T18:09:38.223Z,14.93
2023-01-01T18:12:08.372Z,15.27
2023-01-01T18:14:37.514Z,16.05
2023-01-01T18:17:06.618Z,16.63
2023-01-01T18:19:37.410Z,16.13
2023-01-01T18:22:08.014Z,19.00
2023-01-01T18:24:37.292Z,21.45
2023-01-01T18:27:08.267Z,21.17
2023-01-01T18:29:37.464Z,18.30
2023-01-01T18:32:06.594Z,21.63
2023-01-01T18:34:35.777Z,18.20
2023-01-01T18:37:05.585Z,18.45
2023-01-01T18:39:41.731Z,17.88
2023-01-01T18:42:39.975Z,18.25
2023-01-01T18:45:18.118Z,16.48
2023-01-01T18:47:47.591Z,16.80
2023-01-01T18:50:24.009Z,18.83
2023-01-01T18:53:02.455Z,20.33
2023-01-01T18:55:33.634Z,20.65
2023-01-01T18:58:17.610Z,20.70
2023-01-01T19:00:49.099Z,20.63
2023-01-01T19:03:28.334Z,19.23
2023-01-01T19:05:59.897Z,20.15
2023-01-01T19:08:31.308Z,19.40
2023-01-01T19:11:04.285Z,17.92
2023-01-01T19:13:35.341Z,20.13
2023-01-01T19:16:23.941Z,22.23
2023-01-01T19:18:55.001Z,21.65
2023-01-01T19:21:28.598Z,22.52
2023-01-01T19:24:02.889Z,21.05
2023-01-01T19:26:39.105Z,21.48
2023-01-01T19:29:17.465Z,21.73
2023-01-01T19:31:55.188Z,22.20
2023-01-01T19:34:26.272Z,22.75
2023-01-01T19:36:56.023Z,22.75
2023-01-01T19:39:25.851Z,29.85
2023-01-01T19:42:03.804Z,30.92
2023-01-01T19:44:34.563Z,31.25
2023-01-01T19:47:04.914Z,26.75
2023-01-01T19:49:34.676Z,22.95
2023-01-01T19:52:04.908Z,24.25
2023-01-01T19:54:34.185Z,22.70
2023-01-01T19:57:04.893Z,23.48
2023-01-01T19:59:34.349Z,25.88
2023-01-01T20:02:43.516Z,23.95
2023-01-01T20:04:53.106Z,27.33
2023-01-01T20:07:22.411Z,25.20
2023-01-01T20:09:51.697Z,27.63
2023-01-01T20:12:22.437Z,25.27
2023-01-01T20:14:53.471Z,26.33
2023-01-01T20:17:22.702Z,25.70
2023-01-01T20:19:54.201Z,21.83
2023-01-01T20:22:24.134Z,19.40
2023-01-01T20:24:53.838Z,17.02
2023-01-01T20:27:28.327Z,16.25
2023-01-01T20:29:59.566Z,17.27
2023-01-01T20:32:30.948Z,17.25
2023-01-01T20:35:01.012Z,18.75
2023-01-01T20:37:40.311Z,21.38
2023-01-01T20:40:14.331Z,22.60
2023-01-01T20:42:45.959Z,21.25
2023-01-01T20:45:15.591Z,22.02
2023-01-01T20:47:47.156Z,22.73
2023-01-01T20:50:17.455Z,24.70
2023-01-01T20:52:48.006Z,22.95
2023-01-01T20:55:17.813Z,24.10
2023-01-01T20:57:51.894Z,23.75
2023-01-01T21:00:21.268Z,25.88
2023-01-01T21:02:50.984Z,25.80
2023-01-01T21:05:20.442Z,23.95
2023-01-01T21:07:55.415Z,25.40
2023-01-01T21:10:25.070Z,21.73
2023-01-01T21:12:56.335Z,21.48
2023-01-01T21:15:26.765Z,20.95
2023-01-01T21:18:00.146Z,18.75
2023-01-01T21:20:36.578Z,17.02
2023-01-01T21:23:14.539Z,16.73
2023-01-01T21:25:51.688Z,17.48
2023-01-01T21:28:35.855Z,15.82
2023-01-01T21:31:12.901Z,16.40
2023-01-01T21:33:43.571Z,16.95
2023-01-01T21:36:19.096Z,17.60
2023-01-01T21:38:50.047Z,16.45
2023-01-01T21:41:23.880Z,14.93
2023-01-01T21:43:57.934Z,16.70
2023-01-01T21:46:36.381Z,15.73
2023-01-01T21:49:16.278Z,15.90
2023-01-01T21:51:51.414Z,15.45
2023-01-01T21:54:26.486Z,14.80
2023-01-01T21:56:59.699Z,14.70
2023-01-01T21:59:43.134Z,17.50
2023-01-01T22:02:37.697Z,19.58
2023-01-01T22:05:30.575Z,23.70
2023-01-01T22:08:00.215Z,23.10
2023-01-01T22:10:35.664Z,22.48
2023-01-01T22:13:14.674Z,22.92
2023-01-01T22:15:46.570Z,21.75
2023-01-01T22:18:37.182Z,20.88
2023-01-01T22:21:06.634Z,25.30
2023-01-01T22:23:41.169Z,28.33
2023-01-01T22:26:19.042Z,29.52
2023-01-01T22:28:50.839Z,22.17
2023-01-01T22:31:25.459Z,23.08
2023-01-01T22:34:00.291Z,23.30
2023-01-01T22:36:32.123Z,27.23
2023-01-01T22:39:05.139Z,25.17
2023-01-01T22:41:34.164Z,25.90
2023-01-01T22:44:05.434Z,25.02
2023-01-01T22:46:40.160Z,20.85
2023-01-01T22:49:23.516Z,22.90
2023-01-01T22:51:56.319Z,25.58
2023-01-01T22:54:25.847Z,22.38
2023-01-01T22:56:54.924Z,21.92
2023-01-01T22:59:24.053Z,19.70
2023-01-01T23:01:54.664Z,19.13
2023-01-01T23:04:23.866Z,20.25
2023-01-01T23:06:53.490Z,18.45
2023-01-01T23:09:24.135Z,19.00
2023-01-01T23:11:55.210Z,18.13
2023-01-01T23:14:42.827Z,17.48
2023-01-01T23:17:13.353Z,17.38
2023-01-01T23:19:42.445Z,15.88
2023-01-01T23:22:11.684Z,19.80
2023-01-01T23:24:41.057Z,20.60
2023-01-01T23:27:10.844Z,19.27
2023-01-01T23:29:40.228Z,19.50
2023-01-01T23:32:09.359Z,20.50
2023-01-01T23:34:40.522Z,20.63
2023-01-01T23:37:10.493Z,22.08
2023-01-01T23:39:39.669Z,21.95
2023-01-01T23:42:08.780Z,22.90
2023-01-01T23:44:38.154Z,23.75
2023-01-01T23:47:07.479Z,22.40
2023-01-01T23:49:37.131Z,22.65
2023-01-01T23:52:07.982Z,23.27
2023-01-01T23:54:39.065Z,22.05
2023-01-01T23:57:08.565Z,21.58
2023-01-01T23:59:37.661Z,21.42
